Valparaiso, FL

11:44 AM CDT on August 24, 2016 (GMT -0500)
Eglin Air Force Base | | Change Station

Elev 85 ft 30.48 °N, 86.53 °W | Updated 49 minutes ago

Scattered Clouds
Scattered Clouds
88 °F
Feels Like 100 °F
N
7
Wind Variable Wind from SE

Today
High -- | Low -- °F
--% Chance of Precip.
Yesterday
High -- | Low -- °F
Precip. -- in
Pressure 30.19 in
Visibility 10.0 miles
Clouds Few 2000 ft
Scattered Clouds 25000 ft
Heat Index 100 °F
Dew Point 77 °F
Humidity 69%
Rainfall 0.00 in
Snow Depth Not available.
6:18 AM 7:17 PM
Waning Gibbous, 55% visible
METAR KVPS 241555Z 13006KT 10SM FEW020 SCT250 31/25 A3017 RMK AO2A SLP222 T03120249 $
Pressure 30.19 in
Visibility 10.0 miles
Clouds Few 2000 ft
Scattered Clouds 25000 ft
Heat Index 100 °F
Dew Point 77 °F
Humidity 69%
Rainfall 0.00 in
Snow Depth Not available.
6:18 AM 7:17 PM
Waning Gibbous, 55% visible
METAR KVPS 241555Z 13006KT 10SM FEW020 SCT250 31/25 A3017 RMK AO2A SLP222 T03120249 $

10-Day Weather Forecast

Almanac

Astronomy

Aug. 24, 2016 Rise Set
Actual Time
Civil Twilight
Nautical Twilight
Astronomical Twilight
Moon
Length of Visible Light
Length of Day
Tomorrow will be .
, % of the Moon is Illuminated

Today's Extremes

State Highs State Lows

Community

WunderPhotos

Upload Photos

1,934,652 photos uploaded!

WunderBlog® & News

Nearby

Air Quality

  Air Quality AQ Index Pollutant
Not available.

Snow Depth

Station Depth Elevation

Earthquake Activity

City Distance Mag. Time & Date
Minimum magnitude displayed is 2.5.

Coastal Water Temperatures

Place Temperature

Stations

Nearby Weather Stations

Station Location Temp. Windchill Dew Point Humidity Wind Precip. Elev Updated Type
                   

Watches & Warnings

There are currently no watches in effect.